Benton Harbor, MI

2:52 AM EST on March 06, 2015 (GMT -0500)
MesoWest Swmrec MI US MAWN | Change Station
CLOSE
Current Station
Personal Weather Station
Location: Benton Harbor, MI
Elevation: 722 ft
Nearby Weather Stations

Elev 722 ft 42.08 °N, 86.36 °W | Updated 52 minutes ago

Scattered Clouds
Scattered Clouds
5 °F
Feels Like 5 °F
N
2
Wind Variable Wind from ENE
Gusts 0.0 mph

Today
High -- | Low -- °F
--% Chance of Precip.
Yesterday
High -- | Low -- °F
Precip. -- in
7:13 AM 6:41 PM
Full, 100% visible
Pressure 30.50 in
Visibility 10.0 miles
Clouds Scattered Clouds 2200 ft
Windchill 5 °F
Dew Point -1 °F
Humidity 74%
Rainfall in
Snow Depth Not available.
UV 0 out of 12
Pollen .40 out of 12
Air Quality Not available.
Flu Activity Not available.
SPECI KBEH 060710Z AUTO 20005KT 10SM SCT022 M13/M17 A3050 RMK AO2 T11331167

More Conditions Fewer Conditions

Pressure 30.50 in
Visibility 10.0 miles
Clouds Scattered Clouds 2200 ft
Windchill 5 °F
Dew Point -1 °F
Humidity 74%
Rainfall in
Snow Depth Not available.
UV 0 out of 12
Pollen .40 out of 12
Air Quality Not available.
Flu Activity Not available.
SPECI KBEH 060710Z AUTO 20005KT 10SM SCT022 M13/M17 A3050 RMK AO2 T11331167

More Conditions Fewer Conditions

10-Day Weather Forecast

Almanac

Astronomy

Mar. 06, 2015 Rise Set
Actual Time
Civil Twilight
Nautical Twilight
Astronomical Twilight
Moon
Length of Visible Light
Length of Day
Tomorrow will be .
, % of the Moon is Illuminated

Today's Extremes

State Highs State Lows

Community

WunderPhotos

Upload Photos

1,803,199 photos uploaded!

WunderBlogs® & News

Nearby

Air Quality

  Air Quality AQ Index Pollutant
Not available.

Snow Depth

Station Depth Elevation

Earthquake Activity

City Distance Mag. Time & Date
Minimum magnitude displayed is 2.5.

Coastal Water Temperatures

Place Temperature

Nearby Weather Stations